Time;durP1;ratioP1;P1;durP2;ratioP2;P2;SDS_P1;SDS_P2;PMS_P1;PMS_P2;Temp;Humidity;BMP_temperature;BMP_pressure;BME280_temperature;BME280_humidity;BME280_pressure;Samples;Min_cycle;Max_cycle;Signal;HPM_P1;HPM_P2
2021/01/08 00:02:13;;;;;;;12.90;8.70;;;1.50;99.90;;;;;;5084444;28;20415;-69
2021/01/08 00:04:38;;;;;;;10.97;8.70;;;1.50;99.90;;;;;;5084261;28;20788;-69
2021/01/08 00:07:04;;;;;;;15.50;10.17;;;1.50;99.90;;;;;;5084422;28;20177;-69
2021/01/08 00:09:29;;;;;;;10.97;8.50;;;1.50;99.90;;;;;;5083497;28;20189;-68
2021/01/08 00:11:55;;;;;;;13.10;9.90;;;1.50;99.90;;;;;;5084124;28;20693;-69
2021/01/08 00:14:21;;;;;;;10.97;9.10;;;1.60;99.90;;;;;;5084124;28;20208;-71
2021/01/08 00:16:47;;;;;;;10.97;8.50;;;1.60;99.90;;;;;;5084050;28;20180;-69
2021/01/08 00:19:15;;;;;;;11.70;9.17;;;1.60;99.90;;;;;;5083571;28;20180;-71
2021/01/08 00:21:44;;;;;;;13.20;9.33;;;1.60;99.90;;;;;;5083975;28;20188;-71
2021/01/08 00:24:11;;;;;;;12.47;9.00;;;1.60;99.90;;;;;;5084355;28;20874;-69
2021/01/08 00:26:38;;;;;;;11.33;8.40;;;1.60;99.90;;;;;;5083930;28;20422;-69
2021/01/08 00:29:06;;;;;;;11.50;9.57;;;1.60;99.90;;;;;;5083693;28;20426;-69
2021/01/08 00:31:39;;;;;;;11.20;9.70;;;1.60;99.90;;;;;;5083899;28;20446;-71
2021/01/08 00:34:07;;;;;;;12.63;9.37;;;1.60;99.90;;;;;;5083809;28;20531;-69
2021/01/08 00:36:33;;;;;;;12.87;10.77;;;1.70;99.90;;;;;;5083613;28;20434;-69
2021/01/08 00:38:59;;;;;;;12.93;9.67;;;1.70;99.90;;;;;;5082767;28;20426;-69
2021/01/08 00:41:33;;;;;;;13.03;9.80;;;1.70;99.90;;;;;;5083581;28;20811;-69
2021/01/08 00:44:00;;;;;;;13.30;9.63;;;1.80;99.90;;;;;;5083321;28;20167;-71
2021/01/08 00:46:45;;;;;;;18.17;13.67;;;1.80;99.90;;;;;;5071649;28;20510;-69
2021/01/08 00:49:11;;;;;;;13.10;9.17;;;1.80;99.90;;;;;;5069212;28;20440;-69
2021/01/08 00:51:37;;;;;;;13.70;9.53;;;1.80;99.90;;;;;;5070134;28;20451;-68
2021/01/08 00:54:04;;;;;;;12.43;7.70;;;1.80;99.90;;;;;;5069909;28;20821;-69
2021/01/08 00:56:30;;;;;;;12.73;10.23;;;1.70;99.90;;;;;;5069942;28;20424;-69
2021/01/08 00:58:56;;;;;;;11.70;7.90;;;1.60;99.90;;;;;;5069193;28;20456;-69
2021/01/08 01:01:22;;;;;;;10.97;7.37;;;1.60;99.90;;;;;;5068530;28;20201;-71
2021/01/08 01:03:48;;;;;;;9.97;7.33;;;1.60;99.90;;;;;;5069917;28;20949;-69
2021/01/08 01:06:28;;;;;;;9.33;7.90;;;1.60;99.90;;;;;;5069656;28;20470;-71
2021/01/08 01:08:55;;;;;;;9.90;7.33;;;1.60;99.90;;;;;;5069195;28;20434;-71
2021/01/08 01:11:22;;;;;;;10.83;6.90;;;1.50;99.90;;;;;;5069727;28;20526;-69
2021/01/08 01:13:48;;;;;;;11.00;6.73;;;1.60;99.90;;;;;;5070029;28;20565;-68
2021/01/08 01:16:15;;;;;;;9.47;7.40;;;1.60;99.90;;;;;;5069937;28;20427;-70
2021/01/08 01:18:43;;;;;;;10.40;7.40;;;1.70;99.90;;;;;;5069146;28;20423;-71
2021/01/08 01:21:08;;;;;;;8.53;6.87;;;1.70;99.90;;;;;;5069509;28;20438;-71
2021/01/08 01:23:34;;;;;;;9.80;7.50;;;1.70;99.90;;;;;;5069507;28;20423;-71
2021/01/08 01:26:00;;;;;;;9.90;6.30;;;1.60;99.90;;;;;;5069450;28;20650;-71
2021/01/08 01:28:25;;;;;;;10.10;7.30;;;1.60;99.90;;;;;;5068459;28;20255;-71
2021/01/08 01:30:51;;;;;;;9.10;6.73;;;1.60;99.90;;;;;;5069213;28;20204;-71
2021/01/08 01:33:16;;;;;;;9.13;6.47;;;1.50;99.90;;;;;;5067573;28;20208;-71
2021/01/08 01:35:42;;;;;;;8.57;6.60;;;1.50;99.90;;;;;;5069502;28;20177;-70
2021/01/08 01:38:07;;;;;;;10.83;7.47;;;1.40;99.90;;;;;;5068288;28;20203;-70
2021/01/08 01:40:33;;;;;;;7.73;6.20;;;1.30;99.90;;;;;;5069266;28;20193;-71
2021/01/08 01:42:58;;;;;;;9.10;7.20;;;1.20;99.90;;;;;;5069250;28;20858;-70
2021/01/08 01:45:24;;;;;;;7.97;6.13;;;1.20;99.90;;;;;;5068666;28;20248;-71
2021/01/08 01:47:50;;;;;;;6.93;5.57;;;1.10;99.90;;;;;;5068387;28;20173;-70
2021/01/08 01:50:16;;;;;;;12.13;6.63;;;1.00;99.90;;;;;;5068529;28;20250;-71
2021/01/08 01:52:41;;;;;;;7.07;6.13;;;1.00;99.90;;;;;;5067381;28;20287;-71
2021/01/08 01:55:08;;;;;;;8.80;6.07;;;0.90;99.90;;;;;;5068672;28;20573;-71
2021/01/08 01:57:34;;;;;;;10.30;6.60;;;0.90;99.90;;;;;;5067813;28;20173;-71
2021/01/08 02:00:00;;;;;;;10.60;6.60;;;0.90;99.90;;;;;;5066945;28;20544;-70
2021/01/08 02:02:33;;;;;;;9.43;6.53;;;0.80;99.90;;;;;;5068932;28;20779;-70
2021/01/08 02:05:01;;;;;;;6.73;6.03;;;0.80;99.90;;;;;;5068852;28;20180;-71
2021/01/08 02:07:30;;;;;;;9.53;6.80;;;0.70;99.90;;;;;;5068566;28;20416;-70
2021/01/08 02:09:57;;;;;;;11.47;7.57;;;0.70;99.90;;;;;;5067852;28;20462;-71
2021/01/08 02:12:25;;;;;;;8.90;7.60;;;0.60;99.90;;;;;;5068512;28;20434;-70
2021/01/08 02:14:52;;;;;;;9.63;6.83;;;0.60;99.90;;;;;;5068625;28;20953;-70
2021/01/08 02:17:18;;;;;;;9.70;7.30;;;0.60;99.90;;;;;;5068119;28;20476;-70
2021/01/08 02:19:51;;;;;;;8.43;6.73;;;0.50;99.90;;;;;;5067492;28;20423;-70
2021/01/08 02:22:22;;;;;;;10.33;6.90;;;0.50;99.90;;;;;;5067975;28;20442;-70
2021/01/08 02:25:08;;;;;;;12.17;7.80;;;0.40;99.90;;;;;;5068215;28;20455;-71
2021/01/08 02:27:36;;;;;;;13.60;8.40;;;0.40;99.90;;;;;;5067739;28;20430;-70
2021/01/08 02:30:04;;;;;;;10.00;8.47;;;0.40;99.90;;;;;;5067851;28;20449;-70
2021/01/08 02:32:31;;;;;;;9.47;7.90;;;0.40;99.90;;;;;;5068030;28;20498;-70
2021/01/08 02:34:56;;;;;;;12.90;8.50;;;0.50;99.90;;;;;;5067545;28;20479;-70
2021/01/08 02:37:22;;;;;;;11.17;8.10;;;0.50;99.90;;;;;;5068007;28;21009;-70
2021/01/08 02:39:49;;;;;;;12.73;8.27;;;0.50;99.90;;;;;;5067109;28;20195;-70
2021/01/08 02:42:16;;;;;;;10.67;8.20;;;0.60;99.90;;;;;;5068159;28;20458;-70
2021/01/08 02:44:42;;;;;;;13.50;8.50;;;0.60;99.90;;;;;;5067701;28;20420;-70
2021/01/08 02:47:07;;;;;;;11.00;7.77;;;0.60;99.90;;;;;;5067952;28;20434;-70
2021/01/08 02:49:33;;;;;;;9.23;7.77;;;0.70;99.90;;;;;;5066808;28;20181;-70
2021/01/08 02:52:02;;;;;;;11.03;8.33;;;0.70;99.90;;;;;;5068113;28;20192;-70
2021/01/08 02:54:28;;;;;;;11.20;7.93;;;0.80;99.90;;;;;;5067991;28;20205;-70
2021/01/08 02:56:55;;;;;;;11.67;8.37;;;0.80;99.90;;;;;;5067543;28;20418;-70
2021/01/08 02:59:23;;;;;;;11.23;7.47;;;0.90;99.90;;;;;;5067158;28;20361;-70
2021/01/08 03:01:49;;;;;;;11.00;8.80;;;0.90;99.90;;;;;;5066297;28;20465;-71
2021/01/08 03:04:15;;;;;;;13.40;8.40;;;0.90;99.90;;;;;;5067519;28;20505;-70
2021/01/08 03:06:43;;;;;;;10.77;7.77;;;1.00;99.90;;;;;;5067269;28;20427;-71
2021/01/08 03:09:09;;;;;;;10.50;7.60;;;1.10;99.90;;;;;;5066747;28;20948;-70
2021/01/08 03:11:35;;;;;;;8.87;7.23;;;1.10;99.90;;;;;;5067249;28;20454;-71
2021/01/08 03:14:02;;;;;;;7.90;6.83;;;1.10;99.90;;;;;;5067603;28;20242;-71
2021/01/08 03:16:27;;;;;;;9.53;6.53;;;1.10;99.90;;;;;;5067657;28;20430;-71
2021/01/08 03:18:53;;;;;;;11.83;7.70;;;1.20;99.90;;;;;;5066391;28;20415;-70
2021/01/08 03:21:18;;;;;;;10.70;7.90;;;1.20;99.90;;;;;;5067436;28;20193;-70
2021/01/08 03:23:44;;;;;;;11.17;7.40;;;1.10;99.90;;;;;;5067249;28;20177;-70
2021/01/08 03:26:10;;;;;;;12.00;7.50;;;1.10;99.90;;;;;;5067562;28;20184;-71
2021/01/08 03:28:35;;;;;;;11.10;7.57;;;1.10;99.90;;;;;;5066858;28;20180;-70
2021/01/08 03:31:01;;;;;;;12.13;8.10;;;1.10;99.90;;;;;;5067609;28;20678;-70
2021/01/08 03:33:26;;;;;;;10.60;7.00;;;1.20;99.90;;;;;;5067028;28;20227;-71
2021/01/08 03:35:52;;;;;;;11.37;7.53;;;1.20;99.90;;;;;;5067427;28;20191;-70
2021/01/08 03:38:17;;;;;;;13.60;7.67;;;1.20;99.90;;;;;;5066616;28;20184;-70
2021/01/08 03:40:43;;;;;;;10.17;7.73;;;1.10;99.90;;;;;;5067219;28;20658;-71
2021/01/08 03:43:10;;;;;;;11.57;7.70;;;1.10;99.90;;;;;;5067306;28;20654;-70
2021/01/08 03:45:36;;;;;;;9.40;7.00;;;1.10;99.90;;;;;;5067061;28;20187;-71
2021/01/08 03:48:02;;;;;;;9.70;7.83;;;1.20;99.90;;;;;;5066372;28;20923;-70
2021/01/08 03:50:28;;;;;;;9.97;7.30;;;1.10;99.90;;;;;;5066921;28;20997;-69
2021/01/08 03:52:54;;;;;;;9.20;7.30;;;1.10;99.90;;;;;;5066988;28;20426;-70
2021/01/08 03:55:19;;;;;;;9.20;7.10;;;1.10;99.90;;;;;;5066831;28;20650;-70
2021/01/08 03:57:45;;;;;;;9.90;6.73;;;1.00;99.90;;;;;;5066468;28;20183;-71
2021/01/08 04:00:11;;;;;;;9.73;7.33;;;1.00;99.90;;;;;;5066880;28;20201;-70
2021/01/08 04:02:36;;;;;;;11.20;7.50;;;1.00;99.90;;;;;;5066843;28;20598;-70
2021/01/08 04:05:02;;;;;;;9.37;7.27;;;1.00;99.90;;;;;;5067123;28;20235;-70
2021/01/08 04:07:28;;;;;;;10.40;6.93;;;1.10;99.90;;;;;;5066702;28;20184;-71
2021/01/08 04:09:53;;;;;;;12.17;8.47;;;1.10;99.90;;;;;;5066120;28;20443;-71
2021/01/08 04:12:19;;;;;;;9.27;7.37;;;1.10;99.90;;;;;;5066660;28;20181;-70
2021/01/08 04:14:44;;;;;;;10.10;7.23;;;1.10;99.90;;;;;;5066844;28;20219;-70
2021/01/08 04:17:10;;;;;;;11.00;7.60;;;1.10;99.90;;;;;;5067152;28;20579;-71
2021/01/08 04:19:35;;;;;;;9.00;6.70;;;1.00;99.90;;;;;;5064328;28;20544;-70
2021/01/08 04:22:01;;;;;;;11.07;8.20;;;1.00;99.90;;;;;;5070367;28;20203;-69
2021/01/08 04:24:26;;;;;;;9.67;7.00;;;1.00;99.90;;;;;;5070534;28;20220;-70
2021/01/08 04:26:53;;;;;;;10.73;8.33;;;1.10;99.90;;;;;;5070847;28;20578;-70
2021/01/08 04:29:18;;;;;;;9.73;7.20;;;1.10;99.90;;;;;;5070006;28;20567;-70
2021/01/08 04:31:44;;;;;;;10.80;6.60;;;1.00;99.90;;;;;;5070750;28;20454;-70
2021/01/08 04:34:09;;;;;;;12.10;6.70;;;1.00;99.90;;;;;;5070366;28;20218;-70
2021/01/08 04:36:35;;;;;;;9.13;7.53;;;1.00;99.90;;;;;;5070438;28;20551;-70
2021/01/08 04:39:00;;;;;;;11.23;7.27;;;0.90;99.90;;;;;;5069525;28;20185;-70
2021/01/08 04:41:28;;;;;;;10.13;7.63;;;0.90;99.90;;;;;;5069904;28;20630;-70
2021/01/08 04:43:54;;;;;;;12.40;6.70;;;0.90;99.90;;;;;;5070246;28;20632;-70
2021/01/08 04:46:25;;;;;;;9.40;6.83;;;0.90;99.90;;;;;;5069910;28;20852;-70
2021/01/08 04:49:03;;;;;;;8.97;7.03;;;1.00;99.90;;;;;;5069348;28;20494;-71
2021/01/08 04:51:30;;;;;;;12.10;9.00;;;1.00;99.90;;;;;;5069785;28;20850;-69
2021/01/08 04:53:56;;;;;;;11.90;9.07;;;1.00;99.90;;;;;;5070193;28;20466;-70
2021/01/08 04:56:25;;;;;;;9.87;7.70;;;1.10;99.90;;;;;;5070227;28;20423;-70
2021/01/08 04:58:51;;;;;;;14.90;7.60;;;1.10;99.90;;;;;;5068087;28;20177;-70
2021/01/08 05:01:17;;;;;;;12.17;7.43;;;1.00;99.90;;;;;;5070328;28;20951;-70
2021/01/08 05:03:42;;;;;;;9.73;7.60;;;1.00;99.90;;;;;;5069987;28;20438;-70
2021/01/08 05:06:08;;;;;;;10.57;7.90;;;0.90;99.90;;;;;;5070062;28;20192;-70
2021/01/08 05:08:33;;;;;;;8.80;6.90;;;0.90;99.90;;;;;;5068970;28;20636;-70
2021/01/08 05:11:26;;;;;;;9.73;6.70;;;0.80;99.90;;;;;;5070014;28;20227;-70
2021/01/08 05:13:56;;;;;;;11.17;6.70;;;0.80;99.90;;;;;;5069847;28;20244;-70
2021/01/08 05:16:24;;;;;;;10.20;7.20;;;0.80;99.90;;;;;;5070211;28;20419;-70
2021/01/08 05:18:51;;;;;;;9.67;7.07;;;0.80;99.90;;;;;;5068573;28;20419;-70
2021/01/08 05:21:17;;;;;;;9.20;6.80;;;0.70;99.90;;;;;;5069511;28;20472;-70
2021/01/08 05:23:43;;;;;;;10.97;7.20;;;0.70;99.90;;;;;;5069394;28;20916;-70
2021/01/08 05:26:16;;;;;;;9.57;7.33;;;0.80;99.90;;;;;;5069668;28;20994;-70
2021/01/08 05:28:48;;;;;;;9.37;7.10;;;0.70;99.90;;;;;;5068938;28;20445;-71
2021/01/08 05:31:15;;;;;;;11.20;6.87;;;0.70;99.90;;;;;;5069175;28;20640;-70
2021/01/08 05:33:41;;;;;;;7.53;6.10;;;0.70;99.90;;;;;;5083839;22;20579;-66
2021/01/08 05:36:10;;;;;;;9.13;6.40;;;0.70;99.90;;;;;;5029319;28;20441;-66
2021/01/08 05:38:39;;;;;;;11.77;7.70;;;0.70;99.90;;;;;;5028788;28;20421;-66
2021/01/08 05:41:04;;;;;;;9.67;6.20;;;0.70;99.90;;;;;;5029205;28;20423;-66
2021/01/08 05:43:30;;;;;;;10.60;7.13;;;0.80;99.90;;;;;;5032066;28;20440;-66
2021/01/08 05:46:15;;;;;;;8.93;5.87;;;0.80;99.90;;;;;;5049132;28;20337;-66
2021/01/08 05:48:45;;;;;;;8.20;5.50;;;0.80;99.90;;;;;;5048527;28;20419;-66
2021/01/08 05:51:15;;;;;;;7.87;6.47;;;0.80;99.90;;;;;;5048954;28;20673;-66
2021/01/08 05:53:42;;;;;;;9.70;6.43;;;0.80;99.90;;;;;;5048844;28;20542;-66
2021/01/08 05:56:16;;;;;;;10.87;6.37;;;0.90;99.90;;;;;;5049183;28;20420;-66
2021/01/08 05:58:43;;;;;;;8.40;6.27;;;0.90;99.90;;;;;;5048386;28;20762;-66
2021/01/08 06:01:09;;;;;;;8.50;5.80;;;0.90;99.90;;;;;;5049155;28;20420;-66
2021/01/08 06:03:36;;;;;;;9.57;6.47;;;0.90;99.90;;;;;;5048491;28;20481;-66
2021/01/08 06:06:03;;;;;;;10.70;7.03;;;0.90;99.90;;;;;;5048878;28;20166;-66
2021/01/08 06:08:37;;;;;;;6.97;5.50;;;0.90;99.90;;;;;;5047740;28;20420;-66
2021/01/08 06:11:07;;;;;;;7.03;5.53;;;0.90;99.90;;;;;;5048805;28;20438;-66
2021/01/08 06:13:34;;;;;;;8.77;6.33;;;0.90;99.90;;;;;;5048382;28;20463;-66
2021/01/08 06:16:04;;;;;;;8.90;6.13;;;0.80;99.90;;;;;;5048551;28;20427;-65
2021/01/08 06:18:37;;;;;;;13.77;7.60;;;0.80;99.90;;;;;;5047494;28;20428;-66
2021/01/08 06:21:05;;;;;;;10.17;5.50;;;0.80;99.90;;;;;;5048411;28;20424;-66
2021/01/08 06:23:39;;;;;;;11.43;6.70;;;0.70;99.90;;;;;;5048141;28;20799;-66
2021/01/08 06:26:07;;;;;;;9.23;6.07;;;0.70;99.90;;;;;;5048136;28;20420;-66
2021/01/08 06:28:50;;;;;;;7.80;5.97;;;0.70;99.90;;;;;;5047575;28;20522;-66
2021/01/08 06:31:22;;;;;;;8.17;6.17;;;0.80;99.90;;;;;;5048129;28;20481;-66
2021/01/08 06:33:52;;;;;;;8.90;6.80;;;0.80;99.90;;;;;;5047958;28;20509;-65
2021/01/08 06:36:20;;;;;;;13.80;8.50;;;0.80;99.90;;;;;;5046613;28;20710;-66
2021/01/08 06:38:51;;;;;;;7.73;5.73;;;0.80;99.90;;;;;;5047418;28;20528;-66
2021/01/08 06:41:17;;;;;;;10.60;6.20;;;0.80;99.90;;;;;;5048130;28;20477;-66
2021/01/08 06:43:47;;;;;;;6.60;5.63;;;0.80;99.90;;;;;;5047698;28;20451;-66
2021/01/08 06:46:33;;;;;;;7.17;5.30;;;0.90;99.90;;;;;;5047701;28;20998;-66
2021/01/08 06:49:10;;;;;;;10.53;6.83;;;0.90;99.90;;;;;;5046709;28;20485;-66
2021/01/08 06:51:38;;;;;;;10.13;6.07;;;0.90;99.90;;;;;;5047607;28;20419;-66
2021/01/08 06:54:09;;;;;;;7.43;5.90;;;0.90;99.90;;;;;;5047589;28;20547;-66
2021/01/08 06:56:39;;;;;;;10.43;6.47;;;0.90;99.90;;;;;;5047509;28;20414;-66
2021/01/08 06:59:10;;;;;;;9.40;6.63;;;0.90;99.90;;;;;;5046612;28;20795;-66
2021/01/08 07:02:11;;;;;;;9.63;5.93;;;0.90;99.90;;;;;;5047774;28;20490;-65
2021/01/08 07:04:41;;;;;;;9.93;6.87;;;0.90;99.90;;;;;;5047178;28;20471;-66
2021/01/08 07:07:12;;;;;;;9.47;6.87;;;0.90;99.90;;;;;;5047491;28;20463;-66
2021/01/08 07:09:39;;;;;;;10.57;6.40;;;0.90;99.90;;;;;;5045026;28;20457;-66
2021/01/08 07:12:06;;;;;;;10.00;7.17;;;0.90;99.90;;;;;;5047453;28;20466;-66
2021/01/08 07:14:35;;;;;;;8.37;6.90;;;0.90;99.90;;;;;;5046979;28;20463;-65
2021/01/08 07:17:04;;;;;;;10.53;6.90;;;0.90;99.90;;;;;;5047619;28;20419;-66
2021/01/08 07:19:30;;;;;;;8.50;6.87;;;0.80;99.90;;;;;;5046499;28;20511;-66
2021/01/08 07:22:00;;;;;;;7.80;6.40;;;0.80;99.90;;;;;;5047583;28;20408;-66
2021/01/08 07:24:32;;;;;;;9.80;7.10;;;0.90;99.90;;;;;;5047387;28;20451;-66
2021/01/08 07:27:18;;;;;;;10.07;7.33;;;0.90;99.90;;;;;;5047498;28;20522;-66
2021/01/08 07:30:04;;;;;;;8.87;6.70;;;0.90;99.90;;;;;;5047051;28;20442;-66
2021/01/08 07:32:34;;;;;;;14.77;8.63;;;0.90;99.90;;;;;;5047498;28;20766;-66
2021/01/08 07:35:24;;;;;;;8.07;7.07;;;0.90;99.90;;;;;;5047185;28;20540;-66
2021/01/08 07:38:15;;;;;;;9.20;6.90;;;1.00;99.90;;;;;;5046693;28;20890;-66
2021/01/08 07:40:55;;;;;;;10.03;6.77;;;1.00;99.90;;;;;;5047366;28;20420;-66
2021/01/08 07:43:35;;;;;;;11.50;7.13;;;1.00;99.90;;;;;;5047021;28;20420;-66
2021/01/08 07:46:02;;;;;;;10.23;8.07;;;1.00;99.90;;;;;;5047496;28;20423;-66
2021/01/08 07:48:28;;;;;;;10.10;7.53;;;0.90;99.90;;;;;;5046323;28;20438;-66
2021/01/08 07:50:55;;;;;;;8.93;7.43;;;1.00;99.90;;;;;;5045605;28;20936;-66
2021/01/08 07:53:49;;;;;;;12.70;7.23;;;1.00;99.90;;;;;;5046795;28;20427;-66
2021/01/08 07:56:21;;;;;;;10.80;7.20;;;1.10;99.90;;;;;;5049803;28;20500;-66
2021/01/08 07:59:03;;;;;;;8.83;6.20;;;1.10;99.90;;;;;;5050119;28;20419;-66
2021/01/08 08:01:30;;;;;;;12.47;8.03;;;1.20;99.90;;;;;;5048796;28;20419;-66
2021/01/08 08:04:06;;;;;;;9.10;6.60;;;1.20;99.90;;;;;;5049788;28;20968;-66
2021/01/08 08:06:43;;;;;;;9.00;5.80;;;1.20;99.90;;;;;;5050897;28;20679;-66
2021/01/08 08:09:16;;;;;;;8.30;5.83;;;1.30;99.90;;;;;;5049329;28;20423;-66
2021/01/08 08:11:41;;;;;;;9.10;6.33;;;1.30;99.90;;;;;;5050760;28;20477;-66
2021/01/08 08:14:13;;;;;;;8.77;6.63;;;1.30;99.90;;;;;;5050777;28;20541;-68
2021/01/08 08:16:40;;;;;;;8.77;6.23;;;1.30;99.90;;;;;;5051075;28;20173;-66
2021/01/08 08:19:10;;;;;;;9.90;6.80;;;1.30;99.90;;;;;;5049913;28;20913;-66
2021/01/08 08:21:37;;;;;;;7.43;6.30;;;1.30;99.90;;;;;;5050477;28;21113;-66
2021/01/08 08:24:05;;;;;;;9.67;6.53;;;1.30;99.90;;;;;;5050572;28;21027;-66
2021/01/08 08:26:32;;;;;;;12.67;8.13;;;1.30;99.90;;;;;;5049937;28;20453;-66
2021/01/08 08:29:05;;;;;;;9.20;6.70;;;1.30;99.90;;;;;;5049504;28;20432;-66
2021/01/08 08:31:33;;;;;;;8.50;6.37;;;1.30;99.90;;;;;;5050471;28;20786;-66
2021/01/08 08:33:59;;;;;;;9.80;6.33;;;1.30;99.90;;;;;;5050146;28;20565;-66
2021/01/08 08:36:27;;;;;;;7.07;5.33;;;1.30;99.90;;;;;;5049909;28;20787;-66
2021/01/08 08:39:02;;;;;;;10.10;6.73;;;1.40;99.90;;;;;;5049443;28;20446;-66
2021/01/08 08:41:29;;;;;;;7.07;5.40;;;1.40;99.90;;;;;;5050277;28;20412;-66
2021/01/08 08:44:01;;;;;;;7.47;6.10;;;1.50;99.90;;;;;;5049768;28;20442;-66
2021/01/08 08:46:49;;;;;;;6.13;5.40;;;1.60;99.90;;;;;;5050216;28;20845;-66
2021/01/08 08:49:17;;;;;;;5.60;4.33;;;1.60;99.90;;;;;;5048998;28;20423;-66
2021/01/08 08:51:47;;;;;;;6.80;5.50;;;1.60;99.90;;;;;;5050195;28;20442;-66
2021/01/08 08:54:13;;;;;;;7.30;6.40;;;1.50;99.90;;;;;;5049577;28;20468;-66
2021/01/08 08:56:50;;;;;;;7.40;5.60;;;1.50;99.90;;;;;;5049949;28;20418;-66
2021/01/08 08:59:16;;;;;;;9.23;6.33;;;1.50;99.90;;;;;;5049087;28;20419;-66
2021/01/08 09:01:43;;;;;;;6.30;4.37;;;1.50;99.90;;;;;;5050220;28;20423;-66
2021/01/08 09:04:09;;;;;;;5.47;4.97;;;1.50;99.90;;;;;;5049417;28;20447;-66
2021/01/08 09:06:44;;;;;;;6.57;5.33;;;1.50;99.90;;;;;;5049342;28;20420;-66
2021/01/08 09:09:18;;;;;;;6.53;4.90;;;1.50;99.90;;;;;;5048866;28;20434;-66
2021/01/08 09:12:09;;;;;;;6.33;5.07;;;1.60;99.90;;;;;;5049932;28;20434;-66
2021/01/08 09:14:38;;;;;;;5.17;4.27;;;1.70;99.90;;;;;;5048821;28;20471;-66
2021/01/08 09:17:13;;;;;;;5.37;4.10;;;1.80;99.90;;;;;;5049235;28;20481;-66
2021/01/08 09:19:51;;;;;;;7.27;5.50;;;1.90;99.90;;;;;;5048815;28;20912;-66
2021/01/08 09:22:17;;;;;;;7.73;4.50;;;2.00;99.90;;;;;;5049607;28;20785;-66
2021/01/08 09:24:45;;;;;;;5.27;4.20;;;2.00;99.90;;;;;;5049412;28;20435;-66
2021/01/08 09:27:11;;;;;;;4.53;3.77;;;2.10;99.90;;;;;;5049125;28;20473;-66
2021/01/08 09:29:39;;;;;;;5.37;4.03;;;2.20;99.90;;;;;;5047310;28;20424;-66
2021/01/08 09:32:06;;;;;;;5.40;4.40;;;2.20;99.90;;;;;;5048987;28;20428;-66
2021/01/08 09:34:33;;;;;;;8.30;3.30;;;2.30;99.90;;;;;;5049004;28;21030;-66
2021/01/08 09:37:10;;;;;;;4.47;3.50;;;2.20;99.90;;;;;;5048844;28;20416;-66
2021/01/08 09:39:39;;;;;;;4.00;3.50;;;2.20;99.90;;;;;;5048326;28;20447;-66
2021/01/08 09:42:05;;;;;;;5.20;4.03;;;2.30;99.90;;;;;;5049122;28;20424;-66
2021/01/08 09:44:35;;;;;;;3.97;3.57;;;2.30;99.90;;;;;;5049201;28;20455;-66
2021/01/08 09:47:05;;;;;;;4.70;4.20;;;2.40;99.90;;;;;;5049306;28;20487;-66
2021/01/08 09:49:55;;;;;;;5.47;3.90;;;2.50;99.90;;;;;;5048416;28;20451;-66
2021/01/08 09:52:28;;;;;;;3.67;3.30;;;2.60;99.90;;;;;;5049074;28;20420;-66
2021/01/08 09:54:54;;;;;;;4.40;4.00;;;2.70;99.90;;;;;;5048611;28;20474;-66
2021/01/08 09:57:27;;;;;;;4.57;3.87;;;2.70;99.90;;;;;;5048894;28;20420;-66
2021/01/08 09:59:57;;;;;;;3.50;3.20;;;2.80;99.90;;;;;;5046331;28;20423;-66
2021/01/08 10:02:52;;;;;;;3.97;3.40;;;2.60;99.90;;;;;;5048767;28;20416;-66
2021/01/08 10:05:25;;;;;;;4.00;3.50;;;2.60;99.90;;;;;;5017482;28;20844;-66
2021/01/08 10:07:51;;;;;;;5.23;3.80;;;2.50;99.90;;;;;;5028127;28;20417;-66
2021/01/08 10:10:35;;;;;;;4.73;3.83;;;2.60;99.90;;;;;;5028305;28;20790;-66
2021/01/08 10:13:01;;;;;;;6.03;3.90;;;2.80;99.90;;;;;;5028501;28;20176;-66
2021/01/08 10:15:41;;;;;;;3.77;3.00;;;2.90;99.90;;;;;;5028195;28;20464;-66
2021/01/08 10:18:12;;;;;;;4.70;4.00;;;2.90;99.90;;;;;;5026809;28;20224;-66
2021/01/08 10:20:53;;;;;;;4.63;3.83;;;3.00;99.90;;;;;;5028323;28;20508;-66
2021/01/08 10:23:23;;;;;;;3.30;3.00;;;3.10;99.90;;;;;;5028429;28;20424;-66
2021/01/08 10:25:50;;;;;;;4.33;3.03;;;3.10;99.90;;;;;;5028746;28;20456;-66
2021/01/08 10:28:22;;;;;;;4.70;3.77;;;2.90;99.90;;;;;;5027773;28;20413;-66
2021/01/08 10:30:53;;;;;;;3.93;3.40;;;3.00;99.90;;;;;;5028528;28;20417;-66
2021/01/08 10:33:23;;;;;;;5.60;3.80;;;3.20;99.90;;;;;;5027804;28;20421;-66
2021/01/08 10:35:51;;;;;;;3.57;3.07;;;3.20;99.90;;;;;;5026629;28;20440;-66
2021/01/08 10:38:17;;;;;;;4.23;3.70;;;3.20;99.90;;;;;;5026964;28;20424;-66
2021/01/08 10:40:43;;;;;;;4.83;3.53;;;3.10;99.90;;;;;;5027998;28;20409;-66
2021/01/08 10:43:12;;;;;;;4.90;3.30;;;3.30;99.90;;;;;;5027732;28;20841;-66
2021/01/08 10:45:39;;;;;;;3.87;3.10;;;3.40;99.90;;;;;;5026510;28;20831;-66
2021/01/08 10:48:05;;;;;;;3.53;3.23;;;3.60;99.90;;;;;;5027069;28;20519;-66
2021/01/08 10:50:32;;;;;;;4.27;3.73;;;3.80;99.90;;;;;;5027451;28;20424;-66
2021/01/08 10:52:59;;;;;;;4.93;3.43;;;4.00;99.90;;;;;;5027865;28;20567;-66
2021/01/08 10:55:24;;;;;;;3.77;3.33;;;4.30;99.90;;;;;;5027413;28;20464;-66
2021/01/08 10:57:50;;;;;;;4.70;3.57;;;4.50;99.90;;;;;;5027366;28;20849;-66
2021/01/08 11:00:21;;;;;;;3.60;3.30;;;4.70;99.90;;;;;;5027815;28;20550;-66
2021/01/08 11:02:46;;;;;;;4.77;3.83;;;4.40;99.90;;;;;;5027910;28;20170;-66
2021/01/08 11:05:12;;;;;;;4.67;4.13;;;4.30;99.90;;;;;;5044263;28;20467;-66
2021/01/08 11:07:38;;;;;;;4.70;4.20;;;4.30;99.90;;;;;;5047144;28;20169;-66
2021/01/08 11:10:05;;;;;;;3.60;3.10;;;4.20;99.90;;;;;;5047411;28;20447;-66
2021/01/08 11:12:33;;;;;;;5.17;3.77;;;4.00;99.90;;;;;;5047535;28;20173;-69
2021/01/08 11:14:59;;;;;;;4.93;4.20;;;4.00;99.90;;;;;;5047419;28;20459;-66
2021/01/08 11:17:25;;;;;;;4.70;4.10;;;3.90;99.90;;;;;;5047553;28;20450;-66
2021/01/08 11:19:50;;;;;;;4.63;3.63;;;3.80;99.90;;;;;;5046749;28;20430;-66
2021/01/08 11:22:16;;;;;;;4.70;4.30;;;3.70;99.90;;;;;;5047199;28;20199;-66
2021/01/08 11:24:41;;;;;;;5.00;4.20;;;3.70;99.90;;;;;;5047531;28;20250;-66
2021/01/08 11:27:07;;;;;;;5.50;3.40;;;3.70;99.90;;;;;;5047295;28;20556;-66
2021/01/08 11:29:33;;;;;;;5.13;3.30;;;3.70;99.90;;;;;;5046575;28;20187;-66
2021/01/08 11:31:59;;;;;;;5.93;3.67;;;3.70;99.90;;;;;;5047513;28;20264;-66
2021/01/08 11:34:25;;;;;;;4.80;4.00;;;3.80;99.90;;;;;;5047590;28;20598;-65
2021/01/08 11:36:55;;;;;;;6.13;4.83;;;4.10;99.90;;;;;;5048048;28;20423;-65
2021/01/08 11:39:21;;;;;;;5.90;4.27;;;4.30;99.90;;;;;;5046406;28;20174;-66
2021/01/08 11:41:47;;;;;;;6.33;4.47;;;4.70;99.90;;;;;;5048026;28;20420;-66
2021/01/08 11:44:13;;;;;;;4.60;4.17;;;4.80;99.90;;;;;;5047131;28;20983;-67
2021/01/08 11:46:38;;;;;;;3.40;3.10;;;4.80;99.90;;;;;;5047360;28;20177;-66
2021/01/08 11:49:04;;;;;;;4.50;3.50;;;5.00;99.90;;;;;;5046271;28;20316;-66
2021/01/08 11:51:29;;;;;;;4.93;3.53;;;5.40;99.90;;;;;;5047116;28;20169;-66
2021/01/08 11:53:55;;;;;;;5.17;3.73;;;5.40;99.90;;;;;;5047765;28;20201;-66
2021/01/08 11:56:27;;;;;;;5.10;3.83;;;4.90;99.90;;;;;;5046969;28;20433;-68
2021/01/08 11:58:53;;;;;;;5.23;3.90;;;4.50;99.90;;;;;;5046273;28;20173;-66
2021/01/08 12:01:23;;;;;;;6.10;4.70;;;4.50;99.90;;;;;;5046782;28;20469;-66
2021/01/08 12:03:49;;;;;;;5.40;3.63;;;4.50;99.90;;;;;;5047103;28;20444;-67
2021/01/08 12:06:14;;;;;;;5.27;3.80;;;4.40;99.90;;;;;;5046702;28;20434;-65
2021/01/08 12:08:40;;;;;;;4.43;3.60;;;4.30;99.90;;;;;;5046688;28;20192;-66
2021/01/08 12:11:06;;;;;;;5.60;4.13;;;4.10;99.90;;;;;;5046493;28;20570;-66
2021/01/08 12:13:31;;;;;;;7.70;5.63;;;3.90;99.90;;;;;;5046874;28;20252;-66
2021/01/08 12:15:57;;;;;;;6.07;5.07;;;3.90;99.90;;;;;;5046646;28;20211;-66
2021/01/08 12:18:22;;;;;;;5.73;4.40;;;3.70;99.90;;;;;;5045824;28;20581;-66
2021/01/08 12:20:48;;;;;;;6.13;4.10;;;3.50;99.90;;;;;;5046662;28;20231;-66
2021/01/08 12:23:14;;;;;;;6.50;4.00;;;3.60;99.90;;;;;;5046357;28;20184;-66
2021/01/08 12:25:41;;;;;;;6.33;4.53;;;3.60;99.90;;;;;;5046731;28;20642;-66
2021/01/08 12:28:07;;;;;;;4.87;4.37;;;3.70;99.90;;;;;;5045838;28;20696;-65
2021/01/08 12:30:34;;;;;;;4.47;3.67;;;3.70;99.90;;;;;;5045228;28;20820;-66
2021/01/08 12:33:00;;;;;;;6.17;4.60;;;3.60;99.90;;;;;;5046686;28;20985;-67
2021/01/08 12:35:26;;;;;;;5.50;3.90;;;3.70;99.90;;;;;;5046513;28;20502;-66
2021/01/08 12:37:52;;;;;;;7.80;4.70;;;3.70;99.90;;;;;;5044675;28;20677;-66
2021/01/08 12:40:17;;;;;;;6.43;4.20;;;3.80;99.90;;;;;;5046925;28;20173;-66
2021/01/08 12:42:45;;;;;;;4.97;4.33;;;3.80;99.90;;;;;;5049620;28;20176;-66
2021/01/08 12:45:11;;;;;;;5.73;4.97;;;3.70;99.90;;;;;;5050056;28;20685;-66
2021/01/08 12:47:37;;;;;;;6.80;6.10;;;3.60;99.90;;;;;;5050103;28;21041;-66
2021/01/08 12:50:04;;;;;;;10.00;6.70;;;3.50;99.90;;;;;;5050022;28;20169;-66
2021/01/08 12:52:30;;;;;;;8.03;5.20;;;3.50;99.90;;;;;;5050273;28;20181;-66
2021/01/08 12:54:56;;;;;;;5.90;4.60;;;3.30;99.90;;;;;;5048575;28;20467;-67
2021/01/08 12:57:21;;;;;;;5.50;4.57;;;3.30;99.90;;;;;;5050318;28;20423;-65
2021/01/08 12:59:47;;;;;;;7.43;5.37;;;3.30;99.90;;;;;;5049611;28;20161;-65
2021/01/08 13:02:13;;;;;;;7.30;5.73;;;3.30;99.90;;;;;;5049863;28;20174;-67